Green Stars — V7VZ5 — position and weather

sailwx.info

Track history (hours):
 
Tides and Currents Weather Stations Pressure Air Temp Water Temp Dewpoint Dewpoint Depression Visibility Wind Speed Wind Dir Waves Ship Positions

Green Stars

Last reported at 2017-Jan-05 05:12 UTC. Time now 2017-Jan-22 12:10 UTC.
Position N 32°03' E 120°26'.
Warning: this ship's position is 17 days out of date.

Length 182 m; draft 7 m.

Type: Tanker. MMSI: 538004247.

Date/timePositionNaut miles runAvg speedWind from/ knotsBaromVisibWave heightAir tempDewpointWater temp
2017-Jan-05 05:12N 32°03' E 120°26'4 6.4
2017-Jan-05 04:32N 32°04' E 120°31'33 8.3
2017-Jan-05 00:33N 31°46' E 121°04'1212.5
2017-Jan-04 23:33N 31°38' E 121°15'6 5.9
2017-Jan-04 22:32N 31°34' E 121°20'0 0.0
2017-Jan-04 21:32N 31°34' E 121°20'0 0.0
2017-Jan-04 20:32N 31°34' E 121°20'0 0.0
2017-Jan-04 19:32N 31°34' E 121°20'0 0.1
2017-Jan-04 18:32N 31°33' E 121°20'0 0.2
2017-Jan-04 17:29N 31°33' E 121°20'0 0.0
2017-Jan-04 16:32N 31°33' E 121°20'0 0.0
2017-Jan-04 15:32N 31°33' E 121°20'0 0.0
2017-Jan-04 14:32N 31°33' E 121°20'0 0.0
2017-Jan-04 13:26N 31°33' E 121°20'0 0.0
2017-Jan-04 12:29N 31°33' E 121°20'0 0.2
2017-Jan-04 11:29N 31°34' E 121°20'0 0.1
2017-Jan-04 10:32N 31°34' E 121°20'0 0.4
2017-Jan-04 09:33N 31°34' E 121°20'9 8.6
2017-Jan-04 08:32N 31°28' E 121°27'9 9.0
2017-Jan-04 07:29N 31°23' E 121°36'1010.4
2017-Jan-04 06:34N 31°17' E 121°45'1413.6
2017-Jan-04 05:33N 31°07' E 121°57'1110.9
2017-Jan-04 04:33N 31°03' E 122°09'1312.4
2017-Jan-04 03:31N 31°01' E 122°24'20 0.8
2017-Jan-03 02:10N 30°57' E 122°47'5 6.2
2017-Jan-03 01:24N 30°60' E 122°51'1 0.1
2017-Jan-02 13:32N 30°60' E 122°52'  
2016-Dec-27 03:33N 31°02' E 122°18'1212.4
2016-Dec-27 02:33N 31°04' E 122°04'1211.6
2016-Dec-27 01:33N 31°09' E 121°52'1111.2
2016-Dec-27 00:33N 31°18' E 121°43'1111.4
2016-Dec-26 23:33N 31°24' E 121°33'1111.4
2016-Dec-26 22:33N 31°31' E 121°22'3 3.2
2016-Dec-26 21:31N 31°34' E 121°20'0 0.0
2016-Dec-26 20:31N 31°34' E 121°20'0 0.0
2016-Dec-26 19:31N 31°34' E 121°20'0 0.0
2016-Dec-26 18:31N 31°34' E 121°20'0 0.0
2016-Dec-26 17:31N 31°34' E 121°20'0 0.0
2016-Dec-26 16:31N 31°34' E 121°20'0 0.1
2016-Dec-26 15:31N 31°34' E 121°20'0 0.0
2016-Dec-26 14:31N 31°34' E 121°20'0 0.0
2016-Dec-26 13:28N 31°34' E 121°20'0 0.1
2016-Dec-26 12:31N 31°34' E 121°20'0 0.0
2016-Dec-26 11:31N 31°34' E 121°20'0 0.0
2016-Dec-26 10:31N 31°34' E 121°20'0 0.0
2016-Dec-26 09:31N 31°34' E 121°20'0 0.0
2016-Dec-26 08:31N 31°34' E 121°20'0 0.1
2016-Dec-26 07:31N 31°34' E 121°20'1 1.5
2016-Dec-26 06:33N 31°33' E 121°19'1111.5
2016-Dec-26 05:33N 31°41' E 121°10'  
Track history (hours):
 
Tides and Currents Weather Stations Pressure Air Temp Water Temp Dewpoint Dewpoint Depression Visibility Wind Speed Wind Dir Waves Ship Positions

Green Stars

Last reported at 2017-Jan-05 05:12 UTC. Time now 2017-Jan-22 12:10 UTC.
Position N 32°03' E 120°26'.
Warning: this ship's position is 17 days out of date.

Length 182 m; draft 7 m.

Type: Tanker. MMSI: 538004247.

Date/timePositionNaut miles runAvg speedWind from/ knotsBaromVisibWave heightAir tempDewpointWater temp
2017-Jan-05 05:12N 32°03' E 120°26'4 6.4
2017-Jan-05 04:32N 32°04' E 120°31'33 8.3
2017-Jan-05 00:33N 31°46' E 121°04'1212.5
2017-Jan-04 23:33N 31°38' E 121°15'6 5.9
2017-Jan-04 22:32N 31°34' E 121°20'0 0.0
2017-Jan-04 21:32N 31°34' E 121°20'0 0.0
2017-Jan-04 20:32N 31°34' E 121°20'0 0.0
2017-Jan-04 19:32N 31°34' E 121°20'0 0.1
2017-Jan-04 18:32N 31°33' E 121°20'0 0.2
2017-Jan-04 17:29N 31°33' E 121°20'0 0.0
2017-Jan-04 16:32N 31°33' E 121°20'0 0.0
2017-Jan-04 15:32N 31°33' E 121°20'0 0.0
2017-Jan-04 14:32N 31°33' E 121°20'0 0.0
2017-Jan-04 13:26N 31°33' E 121°20'0 0.0
2017-Jan-04 12:29N 31°33' E 121°20'0 0.2
2017-Jan-04 11:29N 31°34' E 121°20'0 0.1
2017-Jan-04 10:32N 31°34' E 121°20'0 0.4
2017-Jan-04 09:33N 31°34' E 121°20'9 8.6
2017-Jan-04 08:32N 31°28' E 121°27'9 9.0
2017-Jan-04 07:29N 31°23' E 121°36'1010.4
2017-Jan-04 06:34N 31°17' E 121°45'1413.6
2017-Jan-04 05:33N 31°07' E 121°57'1110.9
2017-Jan-04 04:33N 31°03' E 122°09'1312.4
2017-Jan-04 03:31N 31°01' E 122°24'20 0.8
2017-Jan-03 02:10N 30°57' E 122°47'5 6.2
2017-Jan-03 01:24N 30°60' E 122°51'1 0.1
2017-Jan-02 13:32N 30°60' E 122°52'  
2016-Dec-27 03:33N 31°02' E 122°18'1212.4
2016-Dec-27 02:33N 31°04' E 122°04'1211.6
2016-Dec-27 01:33N 31°09' E 121°52'1111.2
2016-Dec-27 00:33N 31°18' E 121°43'1111.4
2016-Dec-26 23:33N 31°24' E 121°33'1111.4
2016-Dec-26 22:33N 31°31' E 121°22'3 3.2
2016-Dec-26 21:31N 31°34' E 121°20'0 0.0
2016-Dec-26 20:31N 31°34' E 121°20'0 0.0
2016-Dec-26 19:31N 31°34' E 121°20'0 0.0
2016-Dec-26 18:31N 31°34' E 121°20'0 0.0
2016-Dec-26 17:31N 31°34' E 121°20'0 0.0
2016-Dec-26 16:31N 31°34' E 121°20'0 0.1
2016-Dec-26 15:31N 31°34' E 121°20'0 0.0
2016-Dec-26 14:31N 31°34' E 121°20'0 0.0
2016-Dec-26 13:28N 31°34' E 121°20'0 0.1
2016-Dec-26 12:31N 31°34' E 121°20'0 0.0
2016-Dec-26 11:31N 31°34' E 121°20'0 0.0
2016-Dec-26 10:31N 31°34' E 121°20'0 0.0
2016-Dec-26 09:31N 31°34' E 121°20'0 0.0
2016-Dec-26 08:31N 31°34' E 121°20'0 0.1
2016-Dec-26 07:31N 31°34' E 121°20'1 1.5
2016-Dec-26 06:33N 31°33' E 121°19'1111.5
2016-Dec-26 05:33N 31°41' E 121°10'  

Dump ship's entire track history